Time;durP1;ratioP1;P1;durP2;ratioP2;P2;SDS_P1;SDS_P2;PMS_P1;PMS_P2;Temp;Humidity;BMP_temperature;BMP_pressure;BME280_temperature;BME280_humidity;BME280_pressure;Samples;Min_cycle;Max_cycle;Signal;HPM_P1;HPM_P2
2023/12/20 00:01:25;;;;;;;1.00;0.08;;;;;;;24.80;73.32;101406.53;10417532;28;20076;-82
2023/12/20 00:06:27;;;;;;;0.20;0.15;;;;;;;24.47;74.17;101406.44;10428187;28;20114;-82
2023/12/20 00:11:29;;;;;;;0.10;0.10;;;;;;;24.38;74.49;101408.41;10407831;28;20044;-83
2023/12/20 00:16:31;;;;;;;0.10;0.10;;;;;;;24.82;72.44;101410.00;10425798;28;20489;-83
2023/12/20 00:21:35;;;;;;;0.00;0.00;;;;;;;25.31;71.88;101398.13;10424909;28;20578;-83
2023/12/20 00:26:37;;;;;;;0.38;0.38;;;;;;;25.02;72.51;101398.91;10415907;28;20496;-83
2023/12/20 00:31:39;;;;;;;0.00;0.00;;;;;;;24.67;71.63;101398.94;10425507;28;20042;-84
2023/12/20 00:36:41;;;;;;;1.17;0.65;;;;;;;24.43;73.40;101400.38;10434534;28;20128;-82
2023/12/20 00:41:42;;;;;;;0.00;0.00;;;;;;;25.61;71.40;101392.91;10407736;28;20055;-84
2023/12/20 00:46:44;;;;;;;0.00;0.00;;;;;;;26.27;70.90;101397.97;10415061;28;20124;-84
2023/12/20 00:51:47;;;;;;;0.20;0.20;;;;;;;27.08;69.40;101405.84;10435776;28;20045;-84
2023/12/20 00:56:49;;;;;;;0.00;0.00;;;;;;;26.27;70.07;101403.25;10432367;28;20049;-84
2023/12/20 01:01:51;;;;;;;0.10;0.10;;;;;;;26.82;68.92;101406.75;10419949;28;20106;-84
2023/12/20 01:06:55;;;;;;;1.92;0.30;;;;;;;25.57;69.96;101395.69;10415274;28;20550;-84
2023/12/20 01:11:57;;;;;;;0.00;0.00;;;;;;;24.47;71.28;101393.25;10413724;28;20045;-83
2023/12/20 01:16:59;;;;;;;0.15;0.15;;;;;;;25.66;67.86;101391.00;10415113;28;20081;-84
2023/12/20 01:22:01;;;;;;;0.00;0.00;;;;;;;25.20;70.12;101384.38;10416874;28;20103;-83
2023/12/20 01:27:03;;;;;;;0.20;0.20;;;;;;;24.66;70.60;101397.22;10434788;28;20077;-83
2023/12/20 01:32:05;;;;;;;0.00;0.00;;;;;;;23.88;71.13;101402.47;10413150;28;20408;-82
2023/12/20 01:37:06;;;;;;;0.10;0.10;;;;;;;24.56;71.13;101395.66;10412518;28;20076;-82
2023/12/20 01:42:08;;;;;;;0.00;0.00;;;;;;;24.46;70.51;101389.78;10422605;28;20033;-82
2023/12/20 01:47:10;;;;;;;0.00;0.00;;;;;;;23.56;72.84;101391.75;10437207;28;20079;-81
2023/12/20 01:52:12;;;;;;;0.00;0.00;;;;;;;23.65;73.24;101401.19;10398579;28;20149;-81
2023/12/20 01:57:15;;;;;;;0.00;0.00;;;;;;;23.66;74.43;101397.69;10426889;28;20492;-82
2023/12/20 02:02:17;;;;;;;0.00;0.00;;;;;;;24.70;71.37;101393.59;10407558;28;20091;-82
2023/12/20 02:07:21;;;;;;;0.20;0.20;;;;;;;23.86;72.75;101392.00;10408444;28;20120;-82
2023/12/20 02:12:23;;;;;;;0.00;0.00;;;;;;;23.12;74.53;101391.69;10418344;28;20053;-82
2023/12/20 02:17:25;;;;;;;0.25;0.25;;;;;;;23.87;73.29;101395.47;10424082;28;20092;-83
2023/12/20 02:22:27;;;;;;;0.03;0.03;;;;;;;24.21;73.08;101386.88;10432635;28;20048;-83
2023/12/20 02:27:30;;;;;;;0.00;0.00;;;;;;;23.59;71.47;101396.97;10431947;28;20053;-82
2023/12/20 02:32:32;;;;;;;0.15;0.15;;;;;;;22.33;75.47;101390.41;10422293;28;20037;-82
2023/12/20 02:37:34;;;;;;;0.10;0.10;;;;;;;22.34;76.94;101396.50;10425681;28;20416;-82
2023/12/20 02:42:36;;;;;;;0.00;0.00;;;;;;;22.95;75.32;101378.88;10438799;28;20037;-83
2023/12/20 02:47:38;;;;;;;0.00;0.00;;;;;;;23.85;73.96;101363.09;10404431;28;20045;-82
2023/12/20 02:52:40;;;;;;;0.03;0.03;;;;;;;23.65;73.43;101372.28;10433070;28;20086;-82
2023/12/20 02:57:42;;;;;;;0.08;0.08;;;;;;;23.47;75.69;101375.31;10434864;28;20044;-82
2023/12/20 03:02:45;;;;;;;0.00;0.00;;;;;;;23.58;74.78;101374.19;10417130;28;20140;-81
2023/12/20 03:07:46;;;;;;;0.00;0.00;;;;;;;22.94;75.46;101365.78;10436383;28;20037;-82
2023/12/20 03:12:49;;;;;;;0.00;0.00;;;;;;;23.53;75.88;101354.97;10427884;28;20067;-82
2023/12/20 03:17:51;;;;;;;0.43;0.43;;;;;;;23.04;78.22;101359.47;10412552;28;20060;-82
2023/12/20 03:22:53;;;;;;;9.55;1.77;;;;;;;22.54;78.83;101348.97;10427975;28;20052;-82
2023/12/20 03:27:55;;;;;;;0.10;0.10;;;;;;;23.55;76.96;101352.34;10438213;28;20128;-82
2023/12/20 03:32:56;;;;;;;0.22;0.22;;;;;;;22.56;77.13;101354.19;10429924;28;20492;-82
2023/12/20 03:38:00;;;;;;;0.00;0.00;;;;;;;23.31;78.01;101341.44;10408768;28;20488;-82
2023/12/20 03:43:02;;;;;;;0.00;0.00;;;;;;;21.38;80.88;101350.56;10420758;28;20033;-81
2023/12/20 03:48:04;;;;;;;1.73;0.70;;;;;;;22.96;77.97;101328.06;10414662;28;20041;-82
2023/12/20 03:53:06;;;;;;;0.35;0.25;;;;;;;22.99;78.80;101321.88;10432879;28;20430;-81
2023/12/20 03:58:08;;;;;;;19.08;0.85;;;;;;;22.49;76.47;101343.78;10415763;28;20136;-81
2023/12/20 04:03:13;;;;;;;0.85;0.38;;;;;;;23.90;75.67;101327.88;10423438;28;20133;-82
2023/12/20 04:08:14;;;;;;;0.05;0.05;;;;;;;22.29;77.50;101345.84;10417116;28;20076;-81
2023/12/20 04:13:16;;;;;;;0.00;0.00;;;;;;;22.52;77.57;101342.88;10442911;28;20050;-81
2023/12/20 04:18:18;;;;;;;0.22;0.13;;;;;;;22.18;77.75;101332.91;10425633;28;20144;-81
2023/12/20 04:23:20;;;;;;;0.20;0.20;;;;;;;23.43;78.50;101327.16;10423166;28;20507;-81
2023/12/20 04:28:21;;;;;;;0.00;0.00;;;;;;;23.17;77.17;101344.31;10432892;28;20055;-82
2023/12/20 04:33:23;;;;;;;0.00;0.00;;;;;;;23.48;76.48;101345.47;10422342;28;20049;-81
2023/12/20 04:38:25;;;;;;;0.43;0.30;;;;;;;23.23;78.19;101336.31;10427278;28;20049;-82
2023/12/20 04:43:26;;;;;;;0.00;0.00;;;;;;;23.37;77.21;101343.94;10405401;28;20076;-81
2023/12/20 04:48:28;;;;;;;0.70;0.70;;;;;;;22.91;76.17;101345.69;10411498;28;20075;-81
2023/12/20 04:53:30;;;;;;;0.00;0.00;;;;;;;22.36;77.18;101350.09;10423145;28;20069;-81
2023/12/20 04:58:32;;;;;;;0.00;0.00;;;;;;;23.19;77.06;101339.91;10418927;28;20041;-81
2023/12/20 05:03:34;;;;;;;0.00;0.00;;;;;;;22.53;77.73;101335.84;10424886;28;20388;-80
2023/12/20 05:08:36;;;;;;;0.00;0.00;;;;;;;23.83;75.13;101342.06;10410393;28;20037;-82
2023/12/20 05:13:37;;;;;;;1.77;0.35;;;;;;;23.55;77.70;101332.16;10421918;28;20060;-81
2023/12/20 05:18:52;;;;;;;0.00;0.00;;;;;;;23.43;78.12;101316.66;10423442;28;20041;-80
2023/12/20 05:23:54;;;;;;;2.65;0.80;;;;;;;23.35;77.84;101310.69;10427411;28;20056;-81
2023/12/20 05:28:55;;;;;;;1.08;0.68;;;;;;;-146.30;100.00;58188.94;10423667;28;20065;-80
2023/12/20 05:33:57;;;;;;;0.98;0.90;;;;;;;-146.30;100.00;58188.94;10403759;28;20037;-81
2023/12/20 05:38:59;;;;;;;3.95;1.45;;;;;;;-146.30;100.00;58188.94;10432873;28;20099;-81
2023/12/20 05:44:01;;;;;;;0.00;0.00;;;;;;;23.35;77.84;101310.69;10397092;28;20455;-81
2023/12/20 05:49:02;;;;;;;0.47;0.40;;;;;;;23.34;76.54;101320.34;10407731;28;20033;-80
2023/12/20 05:54:04;;;;;;;0.10;0.10;;;;;;;23.85;77.63;101319.22;10423790;28;20659;-81
2023/12/20 05:59:06;;;;;;;0.20;0.03;;;;;;;23.05;77.79;101327.00;10424912;28;20069;-81
2023/12/20 06:04:08;;;;;;;7.32;0.30;;;;;;;24.76;76.46;101317.94;10430885;28;20045;-81
2023/12/20 06:09:10;;;;;;;0.00;0.00;;;;;;;23.07;78.27;101327.84;10419718;28;20179;-81
2023/12/20 06:14:12;;;;;;;0.05;0.05;;;;;;;25.09;75.79;101313.50;10407936;28;20045;-81
2023/12/20 06:19:13;;;;;;;0.73;0.30;;;;;;;23.36;77.53;101315.06;10401171;28;20124;-80
2023/12/20 06:24:15;;;;;;;0.00;0.00;;;;;;;23.05;78.62;101316.50;10421225;28;20065;-80
2023/12/20 06:29:17;;;;;;;0.10;0.10;;;;;;;22.19;79.34;101325.00;10430045;28;20123;-81
2023/12/20 06:34:19;;;;;;;2.85;0.73;;;;;;;23.49;77.82;101307.78;10439296;28;20072;-81
2023/12/20 06:39:21;;;;;;;1.85;0.90;;;;;;;24.87;75.28;101306.19;10402408;28;20049;-80
2023/12/20 06:44:22;;;;;;;0.15;0.15;;;;;;;23.63;76.27;101307.44;10423831;28;20084;-80
2023/12/20 06:49:24;;;;;;;1.98;0.95;;;;;;;23.73;76.19;101309.00;10420868;28;20038;-80
2023/12/20 06:54:26;;;;;;;0.00;0.00;;;;;;;24.87;75.98;101305.31;10424349;28;20103;-80
2023/12/20 06:59:29;;;;;;;0.38;0.30;;;;;;;24.04;77.76;101303.91;10416844;28;20056;-81
2023/12/20 07:04:30;;;;;;;0.00;0.00;;;;;;;23.16;76.65;101307.53;10425649;28;20053;-80
2023/12/20 07:09:33;;;;;;;0.47;0.17;;;;;;;24.29;77.65;101299.78;10407079;28;20053;-80
2023/12/20 07:14:35;;;;;;;0.20;0.20;;;;;;;24.55;75.14;101293.84;10409121;28;20056;-79
2023/12/20 07:19:37;;;;;;;0.00;0.00;;;;;;;25.30;74.59;101298.81;10428079;28;20481;-80
2023/12/20 07:24:39;;;;;;;0.30;0.10;;;;;;;25.89;73.18;101297.03;10419912;28;20389;-81
2023/12/20 07:29:41;;;;;;;2.78;0.85;;;;;;;24.48;75.62;101300.19;10420439;28;20145;-80
2023/12/20 07:34:43;;;;;;;0.65;0.65;;;;;;;22.52;77.91;101306.09;10424452;28;20049;-80
2023/12/20 07:39:45;;;;;;;0.93;0.10;;;;;;;24.40;74.68;101293.34;10406358;28;20385;-80
2023/12/20 07:44:47;;;;;;;0.85;0.43;;;;;;;24.39;75.59;101299.50;10410263;28;20041;-80
2023/12/20 07:49:49;;;;;;;0.00;0.00;;;;;;;24.47;75.15;101286.16;10436560;28;20045;-80
2023/12/20 07:54:51;;;;;;;0.40;0.38;;;;;;;22.89;78.80;101286.19;10419690;28;20045;-78
2023/12/20 07:59:53;;;;;;;0.28;0.28;;;;;;;23.29;77.87;101293.28;10420718;28;20392;-78
2023/12/20 08:04:55;;;;;;;0.00;0.00;;;;;;;22.21;79.60;101303.13;10420757;28;20043;-79
2023/12/20 08:09:57;;;;;;;1.65;0.65;;;;;;;22.80;78.96;101297.72;10426394;28;20052;-80
2023/12/20 08:14:58;;;;;;;0.20;0.10;;;;;;;22.27;78.93;101310.88;10419066;28;20523;-79
2023/12/20 08:20:00;;;;;;;0.98;0.52;;;;;;;22.86;79.20;101299.38;10423845;28;21382;-80
2023/12/20 08:25:03;;;;;;;1.17;0.90;;;;;;;22.87;77.30;101290.59;10411739;28;20050;-79
2023/12/20 08:30:06;;;;;;;0.03;0.03;;;;;;;24.66;75.96;101283.94;10410498;28;20153;-79
2023/12/20 08:35:08;;;;;;;0.05;0.05;;;;;;;24.44;75.49;101295.91;10427730;28;20045;-80
2023/12/20 08:40:10;;;;;;;0.03;0.03;;;;;;;24.42;76.71;101297.72;10421532;28;20065;-80
2023/12/20 08:45:12;;;;;;;0.47;0.22;;;;;;;22.72;77.79;101291.72;10426299;28;20071;-80
2023/12/20 08:50:15;;;;;;;0.00;0.00;;;;;;;22.86;77.24;101294.97;10429542;28;20037;-79
2023/12/20 08:55:18;;;;;;;0.20;0.20;;;;;;;23.41;77.25;101276.38;10409524;28;20491;-80
2023/12/20 09:00:20;;;;;;;0.85;0.63;;;;;;;22.41;81.29;101277.41;10426856;28;20138;-79
2023/12/20 09:05:22;;;;;;;1.10;0.47;;;;;;;23.94;79.00;101270.81;10420303;28;20381;-79
2023/12/20 09:10:25;;;;;;;0.00;0.00;;;;;;;23.40;79.09;101275.53;10402608;28;20041;-80
2023/12/20 09:15:27;;;;;;;0.05;0.05;;;;;;;23.05;83.12;101263.94;10423822;28;20045;-80
2023/12/20 09:20:29;;;;;;;0.73;0.17;;;;;;;23.34;81.83;101273.03;10402391;28;20412;-80
2023/12/20 09:25:30;;;;;;;0.00;0.00;;;;;;;21.51;84.85;101276.13;10426687;28;20118;-79
2023/12/20 09:30:33;;;;;;;2.58;1.85;;;;;;;21.48;87.82;101278.78;10418716;28;20050;-79
2023/12/20 09:35:34;;;;;;;0.00;0.00;;;;;;;21.69;89.70;101279.41;10427207;28;20045;-79
2023/12/20 09:40:41;;;;;;;1.98;0.45;;;;;;;22.65;85.84;101296.25;10428173;28;20381;-80
2023/12/20 09:45:46;;;;;;;0.10;0.03;;;;;;;22.79;87.96;101293.34;10427833;28;20155;-80
2023/12/20 09:50:48;;;;;;;0.10;0.10;;;;;;;24.08;82.55;101287.16;10411558;28;20037;-81
2023/12/20 09:55:58;;;;;;;0.08;0.08;;;;;;;23.30;85.40;101279.25;10421415;28;20059;-81
2023/12/20 10:01:01;;;;;;;0.00;0.00;;;;;;;22.38;88.06;101290.56;10420639;28;20069;-82
2023/12/20 10:06:03;;;;;;;1.55;0.20;;;;;;;21.66;90.41;101297.81;10414836;28;20053;-81
2023/12/20 10:11:05;;;;;;;0.05;0.05;;;;;;;22.53;91.28;101304.34;10408113;28;20045;-82
2023/12/20 10:16:07;;;;;;;0.20;0.20;;;;;;;22.33;89.42;101300.28;10427114;28;20046;-82
2023/12/20 10:21:09;;;;;;;3.15;1.55;;;;;;;23.40;85.77;101299.19;10421964;28;20037;-81
2023/12/20 10:26:22;;;;;;;0.20;0.15;;;;;;;22.90;87.86;101301.03;10406272;28;20052;-82
2023/12/20 10:31:38;;;;;;;0.28;0.20;;;;;;;23.05;85.53;101292.84;10421923;28;20045;-81
2023/12/20 10:36:40;;;;;;;4.10;2.13;;;;;;;23.65;85.55;101301.25;10410013;28;20412;-81
2023/12/20 10:41:43;;;;;;;0.08;0.08;;;;;;;24.07;84.44;101293.31;10410049;28;20045;-81
2023/12/20 10:46:51;;;;;;;1.17;0.75;;;;;;;23.86;86.19;101278.00;10430352;28;20124;-81
2023/12/20 10:51:54;;;;;;;0.17;0.13;;;;;;;22.70;87.52;101276.00;10427343;28;20041;-81
2023/12/20 10:56:58;;;;;;;0.08;0.08;;;;;;;22.27;88.54;101271.50;10430075;28;20045;-81
2023/12/20 11:02:05;;;;;;;2.45;0.60;;;;;;;24.48;84.84;101263.31;10421965;28;20041;-80
2023/12/20 11:07:16;;;;;;;1.23;0.55;;;;;;;24.22;85.38;101260.47;10406258;28;20083;-80
2023/12/20 11:12:31;;;;;;;0.55;0.47;;;;;;;22.81;87.94;101260.94;10421979;28;20128;-80
2023/12/20 11:17:33;;;;;;;0.00;0.00;;;;;;;23.18;86.91;101237.47;10429692;28;20045;-80
2023/12/20 11:22:35;;;;;;;0.10;0.10;;;;;;;24.93;84.37;101241.91;10421359;28;20060;-79
2023/12/20 11:27:43;;;;;;;0.03;0.03;;;;;;;23.37;85.29;101237.91;10437120;28;20045;-80
2023/12/20 11:32:47;;;;;;;0.10;0.10;;;;;;;24.17;84.92;101230.75;10431898;28;20495;-79
2023/12/20 11:37:50;;;;;;;0.93;0.43;;;;;;;22.47;85.97;101218.69;10423051;28;20048;-80
2023/12/20 11:42:53;;;;;;;4.05;1.70;;;;;;;22.74;88.98;101206.78;10418759;28;20038;-79
2023/12/20 11:47:57;;;;;;;0.45;0.22;;;;;;;22.73;85.84;101209.44;10429886;28;20064;-80
2023/12/20 11:52:59;;;;;;;1.45;0.28;;;;;;;24.12;85.14;101202.81;10438998;28;20048;-80
2023/12/20 11:58:01;;;;;;;0.35;0.20;;;;;;;24.18;84.46;101211.44;10411473;28;20081;-80
2023/12/20 12:03:03;;;;;;;0.15;0.00;;;;;;;23.83;86.38;101210.50;10400607;28;20140;-80
2023/12/20 12:08:06;;;;;;;0.35;0.35;;;;;;;24.47;84.58;101209.78;10421136;28;20417;-80
2023/12/20 12:13:09;;;;;;;0.60;0.30;;;;;;;25.38;83.46;101206.34;10404407;28;20128;-79
2023/12/20 12:18:15;;;;;;;0.00;0.00;;;;;;;25.03;83.15;101201.19;10446295;28;20458;-80
2023/12/20 12:23:23;;;;;;;0.00;0.00;;;;;;;23.97;84.77;101185.69;10452893;28;20045;-80
2023/12/20 12:28:28;;;;;;;1.13;0.43;;;;;;;24.91;82.11;101185.72;10442910;28;20067;-79
2023/12/20 12:33:30;;;;;;;0.47;0.22;;;;;;;25.60;83.04;101190.66;10463043;28;20048;-80
2023/12/20 12:38:32;;;;;;;0.28;0.10;;;;;;;25.71;81.08;101192.09;10447529;28;20136;-79
2023/12/20 12:43:34;;;;;;;0.32;0.13;;;;;;;25.40;81.73;101172.00;10475111;28;20045;-80
2023/12/20 12:48:38;;;;;;;0.60;0.60;;;;;;;24.25;84.13;101159.47;10421790;28;20045;-79
2023/12/20 12:53:42;;;;;;;5.03;1.10;;;;;;;24.46;83.90;101151.91;10471490;28;20048;-80
2023/12/20 12:58:45;;;;;;;0.00;0.00;;;;;;;24.57;81.32;101155.09;10425222;28;20045;-80
2023/12/20 13:03:47;;;;;;;0.00;0.00;;;;;;;24.21;84.40;101155.22;10452184;28;20045;-79
2023/12/20 13:08:49;;;;;;;0.00;0.00;;;;;;;24.64;81.49;101151.38;10437555;28;20045;-80
2023/12/20 13:13:51;;;;;;;0.63;0.43;;;;;;;23.58;84.32;101137.50;10450477;28;20044;-80
2023/12/20 13:18:53;;;;;;;0.20;0.00;;;;;;;24.73;84.08;101117.78;10437724;28;20136;-80
2023/12/20 13:23:54;;;;;;;7.97;0.25;;;;;;;24.56;84.33;101121.75;10432596;28;20049;-80
2023/12/20 13:28:56;;;;;;;0.00;0.00;;;;;;;23.33;85.16;101118.81;10456848;28;20037;-80
2023/12/20 13:34:00;;;;;;;0.75;0.55;;;;;;;25.72;82.22;101114.69;10462420;28;20037;-81
2023/12/20 13:39:04;;;;;;;0.17;0.15;;;;;;;23.58;84.96;101111.19;10455111;28;20052;-80
2023/12/20 13:44:06;;;;;;;0.90;0.17;;;;;;;24.18;82.46;101094.75;10437354;28;20064;-81
2023/12/20 13:49:08;;;;;;;0.17;0.17;;;;;;;24.35;83.49;101095.13;10444782;28;20052;-80
2023/12/20 13:54:10;;;;;;;1.10;0.73;;;;;;;24.84;80.91;101105.13;10440355;28;20079;-80
2023/12/20 13:59:13;;;;;;;0.00;0.00;;;;;;;24.73;83.38;101097.56;10439243;28;20053;-80
2023/12/20 14:04:15;;;;;;;2.90;0.30;;;;;;;25.12;84.75;101093.75;10436689;28;20037;-80
2023/12/20 14:09:37;;;;;;;10.80;1.15;;;;;;;24.80;84.46;101095.63;10449757;28;20040;-80
2023/12/20 14:14:39;;;;;;;22.90;0.63;;;;;;;24.94;83.48;101088.16;10426255;28;20382;-80
2023/12/20 14:19:40;;;;;;;0.00;0.00;;;;;;;26.08;81.97;101085.28;10450621;28;20049;-80
2023/12/20 14:24:43;;;;;;;0.00;0.00;;;;;;;25.68;81.77;101091.94;10467768;28;20403;-81
2023/12/20 14:29:44;;;;;;;0.10;0.10;;;;;;;25.27;82.89;101087.97;10443450;28;20072;-79
2023/12/20 14:34:46;;;;;;;0.10;0.03;;;;;;;25.03;82.50;101095.75;10455094;28;20045;-79
2023/12/20 14:39:48;;;;;;;1.10;0.55;;;;;;;24.48;84.62;101097.41;10444998;28;20045;-79
2023/12/20 14:44:52;;;;;;;0.85;0.63;;;;;;;26.35;81.66;101090.47;10454343;28;20094;-79
2023/12/20 14:49:53;;;;;;;1.73;1.02;;;;;;;25.52;81.70;101096.88;10444828;28;20055;-80
2023/12/20 14:54:55;;;;;;;0.08;0.08;;;;;;;24.51;85.09;101092.06;10441404;28;20053;-79
2023/12/20 14:59:57;;;;;;;0.20;0.20;;;;;;;25.51;81.69;101085.44;10446119;28;20095;-79
2023/12/20 15:04:59;;;;;;;1.45;0.43;;;;;;;24.47;83.90;101091.28;10459301;28;20086;-79
2023/12/20 15:10:01;;;;;;;0.85;0.47;;;;;;;25.35;83.06;101091.19;10467699;28;20450;-78
2023/12/20 15:15:04;;;;;;;0.20;0.10;;;;;;;23.47;84.74;101096.59;10424757;28;20057;-78
2023/12/20 15:20:07;;;;;;;3.15;2.75;;;;;;;25.07;81.90;101100.91;10448161;28;20033;-79
2023/12/20 15:25:10;;;;;;;0.85;0.77;;;;;;;26.19;81.81;101103.38;10457686;28;20075;-80
2023/12/20 15:30:12;;;;;;;0.30;0.25;;;;;;;26.63;80.46;101092.03;10467151;28;20056;-80
2023/12/20 15:35:14;;;;;;;0.00;0.00;;;;;;;25.85;80.35;101084.31;10426635;28;20048;-80
2023/12/20 15:40:16;;;;;;;0.65;0.55;;;;;;;26.55;79.79;101082.63;10455575;28;20051;-80
2023/12/20 15:45:18;;;;;;;0.05;0.05;;;;;;;25.12;82.17;101077.94;10452192;28;20095;-80
2023/12/20 15:50:20;;;;;;;0.03;0.03;;;;;;;25.87;80.71;101071.91;10464755;28;20040;-79
2023/12/20 15:55:22;;;;;;;0.00;0.00;;;;;;;25.90;81.63;101074.44;10459453;28;20099;-79
2023/12/20 16:00:24;;;;;;;1.27;0.38;;;;;;;26.01;80.39;101063.47;10473343;28;20594;-78
2023/12/20 16:05:25;;;;;;;0.10;0.10;;;;;;;25.76;81.33;101050.31;10448234;28;20053;-80
2023/12/20 16:10:27;;;;;;;0.25;0.10;;;;;;;24.90;81.36;101056.66;10454385;28;20132;-80
2023/12/20 16:15:29;;;;;;;0.30;0.30;;;;;;;25.38;81.93;101045.47;10429880;28;20072;-80
2023/12/20 16:20:31;;;;;;;0.25;0.17;;;;;;;24.43;85.00;101038.75;10454569;28;20040;-79
2023/12/20 16:25:37;;;;;;;0.57;0.25;;;;;;;24.90;85.45;101030.31;10485900;28;20144;-79
2023/12/20 16:30:39;;;;;;;0.08;0.08;;;;;;;24.86;85.16;101025.16;10471335;28;20047;-78
2023/12/20 16:35:42;;;;;;;0.38;0.20;;;;;;;24.79;84.19;101022.75;10457901;28;20045;-79
2023/12/20 16:40:45;;;;;;;0.00;0.00;;;;;;;23.82;86.43;101008.00;10455503;28;20048;-79
2023/12/20 16:45:46;;;;;;;0.10;0.08;;;;;;;25.00;85.38;101008.88;10487814;28;20551;-79
2023/12/20 16:50:49;;;;;;;3.75;1.95;;;;;;;25.39;85.41;101004.13;10466541;28;20032;-79
2023/12/20 16:55:51;;;;;;;0.65;0.65;;;;;;;25.50;84.01;100988.78;10452808;28;20151;-79
2023/12/20 17:00:53;;;;;;;0.00;0.00;;;;;;;23.91;86.61;100977.03;10465870;28;20135;-79
2023/12/20 17:05:55;;;;;;;0.10;0.10;;;;;;;25.65;84.47;100968.91;10448296;28;20705;-79
2023/12/20 17:10:57;;;;;;;0.38;0.38;;;;;;;24.88;84.81;100975.03;10490041;28;20033;-79
2023/12/20 17:15:59;;;;;;;7.43;0.65;;;;;;;23.10;88.49;100951.13;10456380;28;20052;-80
2023/12/20 17:21:01;;;;;;;0.35;0.28;;;;;;;26.50;83.06;100949.88;10441711;28;20036;-79
2023/12/20 17:26:03;;;;;;;1.85;0.65;;;;;;;24.97;85.55;100942.22;10442613;28;20044;-79
2023/12/20 17:31:04;;;;;;;0.22;0.08;;;;;;;26.51;82.71;100933.09;10466849;28;20078;-79
2023/12/20 17:36:07;;;;;;;0.32;0.17;;;;;;;25.74;82.46;100931.63;10436072;28;20097;-79
2023/12/20 17:41:09;;;;;;;0.10;0.10;;;;;;;25.88;80.92;100920.53;10462506;28;20484;-80
2023/12/20 17:46:11;;;;;;;2.35;0.47;;;;;;;25.80;84.16;100912.09;10430686;28;20049;-78
2023/12/20 17:51:14;;;;;;;0.95;0.55;;;;;;;24.64;86.97;100906.38;10458803;28;20462;-79
2023/12/20 17:56:17;;;;;;;0.77;0.77;;;;;;;23.17;89.67;100892.28;10485069;28;20036;-79
2023/12/20 18:01:18;;;;;;;10.30;2.17;;;;;;;23.98;89.74;100893.56;10463698;28;20045;-79
2023/12/20 18:06:20;;;;;;;0.30;0.30;;;;;;;23.97;91.30;100889.19;10449760;28;20696;-78
2023/12/20 18:11:22;;;;;;;1.08;0.65;;;;;;;24.73;88.60;100878.91;10452986;28;20310;-79
2023/12/20 18:16:24;;;;;;;0.60;0.47;;;;;;;23.56;91.28;100875.47;10458481;28;20044;-79
2023/12/20 18:21:26;;;;;;;2.05;0.57;;;;;;;24.10;90.93;100871.25;10465544;28;20069;-78
2023/12/20 18:26:27;;;;;;;0.00;0.00;;;;;;;25.25;88.90;100857.78;10470996;28;20472;-78
2023/12/20 18:31:29;;;;;;;3.58;0.70;;;;;;;24.16;90.92;100859.69;10468157;28;20069;-79
2023/12/20 18:36:31;;;;;;;0.45;0.40;;;;;;;24.78;92.07;100844.50;10457383;28;20174;-80
2023/12/20 18:41:33;;;;;;;0.32;0.32;;;;;;;24.84;89.97;100841.66;10458252;28;20095;-80
2023/12/20 18:46:34;;;;;;;0.43;0.43;;;;;;;24.36;90.05;100830.94;10460227;28;20045;-80
2023/12/20 18:51:36;;;;;;;0.20;0.20;;;;;;;24.88;91.95;100822.19;10451514;28;20051;-79
2023/12/20 18:56:39;;;;;;;1.17;0.68;;;;;;;24.79;90.96;100817.25;10459189;28;20048;-79
2023/12/20 19:01:41;;;;;;;0.20;0.20;;;;;;;24.68;89.07;100815.88;10454630;28;20071;-79
2023/12/20 19:06:43;;;;;;;0.55;0.30;;;;;;;24.39;90.91;100809.75;10431503;28;20071;-80
2023/12/20 19:11:45;;;;;;;0.10;0.10;;;;;;;24.97;91.87;100811.34;10445396;28;20410;-80
2023/12/20 19:16:47;;;;;;;1.48;0.80;;;;;;;25.30;91.19;100803.09;10455039;28;20049;-80
2023/12/20 19:21:48;;;;;;;0.40;0.40;;;;;;;25.54;90.28;100786.44;10446830;28;20137;-80
2023/12/20 19:26:50;;;;;;;0.35;0.35;;;;;;;26.19;88.34;100792.66;10456558;28;20055;-80
2023/12/20 19:31:52;;;;;;;0.38;0.20;;;;;;;25.55;88.91;100786.38;10482235;28;20043;-79
2023/12/20 19:36:54;;;;;;;2.55;0.57;;;;;;;26.63;88.30;100775.84;10437725;28;20723;-79
2023/12/20 19:41:56;;;;;;;0.10;0.10;;;;;;;25.75;90.44;100764.50;10482217;28;20048;-79
2023/12/20 19:46:58;;;;;;;0.25;0.25;;;;;;;25.29;91.31;100748.63;10446730;28;20048;-80
2023/12/20 19:52:01;;;;;;;1.40;0.93;;;;;;;25.91;88.42;100746.25;10442662;28;20039;-79
2023/12/20 19:57:03;;;;;;;0.13;0.13;;;;;;;24.45;90.87;100744.66;10435803;28;20565;-80
2023/12/20 20:02:05;;;;;;;2.47;1.35;;;;;;;25.87;90.36;100728.84;10455149;28;20835;-79
2023/12/20 20:07:12;;;;;;;0.25;0.15;;;;;;;25.42;88.04;100733.25;10453639;28;20110;-79
2023/12/20 20:12:15;;;;;;;0.82;0.25;;;;;;;24.44;92.73;100724.50;10457914;28;20040;-79
2023/12/20 20:17:16;;;;;;;0.28;0.20;;;;;;;26.13;88.60;100713.72;10464674;28;20128;-80
2023/12/20 20:22:18;;;;;;;0.63;0.30;;;;;;;25.81;90.14;100718.50;10455072;28;20048;-80
2023/12/20 20:27:21;;;;;;;0.80;0.80;;;;;;;25.35;89.28;100722.03;10459225;28;20523;-80
2023/12/20 20:32:23;;;;;;;0.77;0.50;;;;;;;25.52;90.82;100724.97;10467025;28;20381;-80
2023/12/20 20:37:25;;;;;;;1.08;0.40;;;;;;;25.74;90.94;100723.19;10450244;28;20041;-80
2023/12/20 20:42:28;;;;;;;0.98;0.70;;;;;;;25.42;92.64;100721.84;10425509;28;20091;-80
2023/12/20 20:47:30;;;;;;;0.10;0.10;;;;;;;25.56;91.56;100711.59;10453655;28;20415;-79
2023/12/20 20:52:31;;;;;;;0.10;0.10;;;;;;;25.35;91.28;100710.63;10463615;28;20438;-80
2023/12/20 20:57:33;;;;;;;0.10;0.10;;;;;;;26.64;88.88;100700.06;10446290;28;20091;-80
2023/12/20 21:02:35;;;;;;;0.15;0.15;;;;;;;26.09;89.90;100696.31;10448362;28;20032;-80
2023/12/20 21:07:37;;;;;;;0.00;0.00;;;;;;;25.67;91.68;100690.06;10456742;28;20087;-79
2023/12/20 21:12:38;;;;;;;0.00;0.00;;;;;;;24.86;93.14;100676.47;10427971;28;20051;-80
2023/12/20 21:17:43;;;;;;;0.05;0.05;;;;;;;25.45;91.09;100668.97;10448757;28;20411;-81
2023/12/20 21:22:46;;;;;;;1.65;0.68;;;;;;;25.66;92.82;100660.19;10431129;28;20045;-80
2023/12/20 21:27:47;;;;;;;0.20;0.10;;;;;;;24.43;99.42;100662.22;10445408;28;20079;-80
2023/12/20 21:32:50;;;;;;;2.25;0.85;;;;;;;24.16;97.90;100646.50;10446902;28;20455;-79
2023/12/20 21:37:52;;;;;;;0.43;0.20;;;;;;;26.31;89.99;100642.56;10458637;28;20052;-79
2023/12/20 21:42:53;;;;;;;0.03;0.03;;;;;;;25.40;94.69;100634.03;10475696;28;20100;-81
2023/12/20 21:47:55;;;;;;;0.00;0.00;;;;;;;25.61;93.36;100622.59;10444139;28;20053;-80
2023/12/20 21:52:58;;;;;;;0.45;0.38;;;;;;;24.95;93.92;100617.28;10445608;28;20544;-80
2023/12/20 21:57:59;;;;;;;0.10;0.10;;;;;;;25.64;93.77;100601.38;10434069;28;20115;-81
2023/12/20 22:03:07;;;;;;;0.28;0.17;;;;;;;26.09;93.52;100609.19;10452513;28;20064;-80
2023/12/20 22:08:11;;;;;;;0.32;0.10;;;;;;;24.77;95.02;100613.59;10464062;28;20047;-80
2023/12/20 22:13:13;;;;;;;0.00;0.00;;;;;;;24.86;94.58;100608.84;10453339;28;20051;-80
2023/12/20 22:18:15;;;;;;;0.98;0.35;;;;;;;24.73;93.07;100622.53;10455342;28;20220;-80
2023/12/20 22:23:17;;;;;;;0.10;0.10;;;;;;;26.81;91.67;100626.22;10445193;28;20041;-80
2023/12/20 22:28:19;;;;;;;0.45;0.30;;;;;;;25.46;92.43;100629.38;10454005;28;20128;-80
2023/12/20 22:33:21;;;;;;;0.30;0.30;;;;;;;26.88;91.86;100627.66;10468223;28;20090;-80
2023/12/20 22:38:25;;;;;;;0.68;0.38;;;;;;;27.48;88.96;100609.84;10454475;28;20044;-80
2023/12/20 22:43:27;;;;;;;0.10;0.05;;;;;;;26.31;91.33;100616.16;10478098;28;20048;-81
2023/12/20 22:48:30;;;;;;;0.10;0.10;;;;;;;27.04;89.64;100603.13;10485795;28;20044;-80
2023/12/20 22:53:32;;;;;;;0.20;0.20;;;;;;;27.00;89.44;100589.19;10464956;28;20403;-80
2023/12/20 22:58:34;;;;;;;0.80;0.47;;;;;;;27.56;87.53;100597.06;10465493;28;20052;-80
2023/12/20 23:03:36;;;;;;;0.10;0.10;;;;;;;27.62;88.87;100588.84;10461176;28;20115;-80
2023/12/20 23:08:38;;;;;;;0.20;0.20;;;;;;;26.88;90.24;100589.78;10465707;28;20048;-80